createdAt,value
2022-10-08T00:01:31.329Z,10.90
2022-10-08T00:03:59.609Z,10.67
2022-10-08T00:06:30.086Z,11.00
2022-10-08T00:09:02.344Z,9.80
2022-10-08T00:11:32.604Z,11.33
2022-10-08T00:14:02.131Z,10.43
2022-10-08T00:16:32.950Z,11.37
2022-10-08T00:19:03.827Z,10.60
2022-10-08T00:21:34.854Z,11.50
2022-10-08T00:24:05.908Z,11.20
2022-10-08T00:26:39.849Z,9.40
2022-10-08T00:29:12.087Z,9.90
2022-10-08T00:31:42.294Z,9.60
2022-10-08T00:34:12.526Z,9.93
2022-10-08T00:36:41.440Z,9.37
2022-10-08T00:39:13.728Z,9.10
2022-10-08T00:41:42.088Z,9.33
2022-10-08T00:44:47.324Z,8.80
2022-10-08T00:47:19.380Z,9.03
2022-10-08T00:49:49.201Z,9.40
2022-10-08T00:52:18.342Z,10.20
2022-10-08T00:54:50.094Z,8.17
2022-10-08T00:57:18.926Z,7.80
2022-10-08T00:59:47.031Z,8.33
2022-10-08T01:02:15.885Z,8.70
2022-10-08T01:04:45.025Z,9.10
2022-10-08T01:07:20.047Z,9.83
2022-10-08T01:09:56.895Z,9.77
2022-10-08T01:12:34.269Z,7.90
2022-10-08T01:15:09.030Z,8.27
2022-10-08T01:17:47.752Z,9.13
2022-10-08T01:20:45.283Z,8.90
2022-10-08T01:23:30.522Z,8.13
2022-10-08T01:26:09.778Z,8.53
2022-10-08T01:28:43.722Z,8.20
2022-10-08T01:31:19.166Z,8.90
2022-10-08T01:33:52.011Z,8.27
2022-10-08T01:36:21.886Z,8.77
2022-10-08T01:38:54.377Z,7.70
2022-10-08T01:41:26.055Z,7.90
2022-10-08T01:44:02.537Z,8.50
2022-10-08T01:46:32.850Z,8.20
2022-10-08T01:49:07.476Z,8.53
2022-10-08T01:51:40.226Z,9.43
2022-10-08T01:54:11.755Z,9.70
2022-10-08T01:56:42.511Z,8.87
2022-10-08T01:59:16.783Z,8.57
2022-10-08T02:01:53.265Z,7.70
2022-10-08T02:04:34.492Z,8.20
2022-10-08T02:07:07.347Z,8.73
2022-10-08T02:09:39.881Z,8.53
2022-10-08T02:12:09.309Z,9.13
2022-10-08T02:14:41.371Z,8.23
2022-10-08T02:17:21.192Z,7.60
2022-10-08T02:19:54.377Z,7.77
2022-10-08T02:22:27.622Z,8.60
2022-10-08T02:25:01.157Z,7.87
2022-10-08T02:27:44.147Z,8.10
2022-10-08T02:30:14.705Z,7.57
2022-10-08T02:32:50.845Z,8.10
2022-10-08T02:35:25.277Z,7.47
2022-10-08T02:37:59.030Z,8.27
2022-10-08T02:40:29.231Z,9.00
2022-10-08T02:43:02.529Z,7.70
2022-10-08T02:45:37.452Z,7.90
2022-10-08T02:48:09.562Z,7.40
2022-10-08T02:50:41.665Z,7.87
2022-10-08T02:53:14.566Z,7.93
2022-10-08T02:55:50.175Z,6.80
2022-10-08T02:58:18.791Z,7.73
2022-10-08T03:00:52.405Z,8.07
2022-10-08T03:03:27.774Z,7.83
2022-10-08T03:05:57.761Z,7.97
2022-10-08T03:08:25.944Z,6.50
2022-10-08T03:10:54.445Z,7.67
2022-10-08T03:13:23.331Z,7.40
2022-10-08T03:15:54.696Z,7.20
2022-10-08T03:18:25.314Z,7.90
2022-10-08T03:20:55.324Z,7.77
2022-10-08T03:23:24.904Z,7.60
2022-10-08T03:25:52.913Z,7.27
2022-10-08T03:28:21.000Z,7.57
2022-10-08T03:30:49.080Z,6.70
2022-10-08T03:33:18.479Z,7.13
2022-10-08T03:35:46.938Z,6.53
2022-10-08T03:38:16.526Z,6.90
2022-10-08T03:40:45.209Z,6.63
2022-10-08T03:43:13.215Z,6.63
2022-10-08T03:45:49.548Z,6.90
2022-10-08T03:48:19.619Z,7.10
2022-10-08T03:50:54.529Z,6.33
2022-10-08T03:53:22.937Z,6.60
2022-10-08T03:55:51.299Z,6.30
2022-10-08T03:58:19.919Z,7.97
2022-10-08T04:00:57.705Z,7.87
2022-10-08T04:03:28.088Z,7.10
2022-10-08T04:05:56.160Z,7.13
2022-10-08T04:08:24.763Z,6.37
2022-10-08T04:10:53.034Z,6.90
2022-10-08T04:13:21.535Z,7.40
2022-10-08T04:15:50.765Z,7.70
2022-10-08T04:18:18.935Z,7.93
2022-10-08T04:20:48.265Z,7.53
2022-10-08T04:23:16.262Z,7.57
2022-10-08T04:25:50.889Z,7.77
2022-10-08T04:28:19.240Z,7.10
2022-10-08T04:30:56.610Z,8.03
2022-10-08T04:33:25.402Z,7.80
2022-10-08T04:35:59.835Z,7.87
2022-10-08T04:38:28.853Z,8.57
2022-10-08T04:41:04.034Z,9.20
2022-10-08T04:43:32.099Z,7.03
2022-10-08T04:46:00.182Z,7.70
2022-10-08T04:48:28.479Z,7.60
2022-10-08T04:50:59.325Z,8.00
2022-10-08T04:53:27.792Z,8.23
2022-10-08T04:55:56.788Z,8.37
2022-10-08T04:58:26.223Z,7.50
2022-10-08T05:00:54.290Z,7.60
2022-10-08T05:03:22.304Z,8.10
2022-10-08T05:05:50.319Z,8.60
2022-10-08T05:08:19.790Z,7.43
2022-10-08T05:10:49.849Z,8.03
2022-10-08T05:13:17.931Z,7.20
2022-10-08T05:15:46.134Z,8.10
2022-10-08T05:18:14.197Z,8.30
2022-10-08T05:20:42.203Z,7.73
2022-10-08T05:23:10.384Z,7.77
2022-10-08T05:25:39.727Z,8.53
2022-10-08T05:28:07.826Z,7.57
2022-10-08T05:30:35.947Z,8.40
2022-10-08T05:33:04.015Z,7.13
2022-10-08T05:35:32.010Z,7.63
2022-10-08T05:37:59.993Z,7.93
2022-10-08T05:40:29.621Z,7.53
2022-10-08T05:42:59.077Z,7.90
2022-10-08T05:45:27.105Z,7.27
2022-10-08T05:47:55.655Z,8.00
2022-10-08T05:50:23.683Z,8.03
2022-10-08T05:52:51.813Z,7.90
2022-10-08T05:55:19.874Z,7.40
2022-10-08T05:57:47.864Z,8.63
2022-10-08T06:00:17.748Z,7.40
2022-10-08T06:02:46.051Z,7.93
2022-10-08T06:05:14.311Z,6.87
2022-10-08T06:07:42.334Z,7.20
2022-10-08T06:10:10.708Z,7.30
2022-10-08T06:12:38.715Z,6.53
2022-10-08T06:15:07.747Z,7.87
2022-10-08T06:17:37.230Z,8.70
2022-10-08T06:20:06.139Z,7.97
2022-10-08T06:22:34.205Z,8.70
2022-10-08T06:25:02.318Z,8.00
2022-10-08T06:27:30.368Z,6.83
2022-10-08T06:29:58.415Z,7.53
2022-10-08T06:32:26.534Z,7.03
2022-10-08T06:34:56.024Z,6.70
2022-10-08T06:37:24.142Z,7.20
2022-10-08T06:39:52.224Z,7.03
2022-10-08T06:42:20.236Z,6.87
2022-10-08T06:44:48.272Z,7.17
2022-10-08T06:47:16.354Z,6.43
2022-10-08T06:49:44.377Z,6.30
2022-10-08T06:52:13.726Z,6.37
2022-10-08T06:54:41.722Z,5.30
2022-10-08T06:57:09.743Z,6.57
2022-10-08T06:59:37.842Z,6.10
2022-10-08T07:02:06.017Z,6.70
2022-10-08T07:04:34.074Z,5.33
2022-10-08T07:07:02.093Z,6.10
2022-10-08T07:09:31.623Z,5.73
2022-10-08T07:11:59.706Z,5.43
2022-10-08T07:14:27.784Z,5.07
2022-10-08T07:16:55.910Z,5.40
2022-10-08T07:19:24.947Z,5.07
2022-10-08T07:21:54.279Z,4.13
2022-10-08T07:24:24.939Z,5.40
2022-10-08T07:26:54.488Z,4.70
2022-10-08T07:29:24.555Z,4.80
2022-10-08T07:31:53.570Z,5.00
2022-10-08T07:34:21.877Z,3.83
2022-10-08T07:36:49.962Z,4.60
2022-10-08T07:39:19.829Z,4.33
2022-10-08T07:41:48.175Z,4.80
2022-10-08T07:44:18.574Z,4.07
2022-10-08T07:46:48.578Z,4.70
2022-10-08T07:49:17.892Z,3.87
2022-10-08T07:51:46.375Z,4.10
2022-10-08T07:54:16.522Z,4.20
2022-10-08T07:56:44.937Z,3.23
2022-10-08T07:59:15.744Z,4.53
2022-10-08T08:01:45.238Z,4.07
2022-10-08T08:04:14.620Z,3.80
2022-10-08T08:06:45.239Z,3.60
2022-10-08T08:09:14.327Z,4.30
2022-10-08T08:11:42.620Z,3.67
2022-10-08T08:14:10.805Z,3.60
2022-10-08T08:16:40.354Z,3.60
2022-10-08T08:19:09.829Z,3.40
2022-10-08T08:21:39.639Z,3.03
2022-10-08T08:24:09.159Z,3.00
2022-10-08T08:26:38.901Z,3.03
2022-10-08T08:29:08.787Z,2.80
2022-10-08T08:31:38.716Z,2.87
2022-10-08T08:34:10.544Z,2.70
2022-10-08T08:36:40.765Z,2.63
2022-10-08T08:39:12.145Z,3.00
2022-10-08T08:41:57.913Z,2.80
2022-10-08T08:44:30.083Z,2.80
2022-10-08T08:47:01.140Z,2.40
2022-10-08T08:49:34.878Z,2.20
2022-10-08T08:52:05.424Z,2.13
2022-10-08T08:54:33.695Z,2.37
2022-10-08T08:57:13.119Z,2.07
2022-10-08T08:59:44.657Z,2.10
2022-10-08T09:02:21.081Z,2.13
2022-10-08T09:04:55.035Z,2.30
2022-10-08T09:07:26.121Z,2.40
2022-10-08T09:09:58.172Z,1.80
2022-10-08T09:12:33.881Z,3.17
2022-10-08T09:15:04.157Z,2.30
2022-10-08T09:17:34.097Z,2.40
2022-10-08T09:20:05.326Z,2.00
2022-10-08T09:22:38.283Z,2.70
2022-10-08T09:25:08.934Z,2.40
2022-10-08T09:27:51.224Z,2.10
2022-10-08T09:30:30.239Z,2.03
2022-10-08T09:33:00.299Z,2.40
2022-10-08T09:35:30.315Z,2.27
2022-10-08T09:38:02.164Z,1.60
2022-10-08T09:40:33.851Z,1.93
2022-10-08T09:43:13.586Z,1.93
2022-10-08T09:45:44.040Z,1.90
2022-10-08T09:48:20.452Z,2.03
2022-10-08T09:50:53.970Z,2.53
2022-10-08T09:53:30.038Z,1.60
2022-10-08T09:56:00.666Z,1.90
2022-10-08T09:58:32.238Z,1.83
2022-10-08T10:01:04.800Z,1.50
2022-10-08T10:03:35.750Z,2.03
2022-10-08T10:06:05.537Z,2.07
2022-10-08T10:08:46.782Z,1.80
2022-10-08T10:11:21.631Z,2.30
2022-10-08T10:13:51.701Z,2.00
2022-10-08T10:16:24.954Z,1.60
2022-10-08T10:18:57.760Z,1.60
2022-10-08T10:21:36.907Z,2.13
2022-10-08T10:24:25.974Z,1.90
2022-10-08T10:26:56.944Z,1.90
2022-10-08T10:29:30.063Z,1.70
2022-10-08T10:32:03.325Z,1.90
2022-10-08T10:34:37.122Z,1.67
2022-10-08T10:37:13.524Z,1.90
2022-10-08T10:39:47.824Z,2.00
2022-10-08T10:42:20.328Z,2.10
2022-10-08T10:44:54.419Z,1.70
2022-10-08T10:47:27.176Z,1.80
2022-10-08T10:49:56.502Z,1.63
2022-10-08T10:52:49.907Z,2.27
2022-10-08T10:55:25.086Z,1.87
2022-10-08T10:58:15.429Z,1.80
2022-10-08T11:00:51.132Z,1.77
2022-10-08T11:03:24.974Z,1.80
2022-10-08T11:06:02.970Z,1.83
2022-10-08T11:08:40.439Z,2.13
2022-10-08T11:11:18.756Z,2.17
2022-10-08T11:13:59.588Z,2.20
2022-10-08T11:16:40.388Z,1.53
2022-10-08T11:19:18.892Z,2.40
2022-10-08T11:21:58.635Z,2.07
2022-10-08T11:24:50.691Z,2.33
2022-10-08T11:27:29.188Z,1.90
2022-10-08T11:30:04.436Z,2.37
2022-10-08T11:32:33.374Z,2.70
2022-10-08T11:35:16.565Z,3.00
2022-10-08T11:37:49.382Z,2.60
2022-10-08T11:40:27.723Z,2.03
2022-10-08T11:43:05.473Z,1.60
2022-10-08T11:45:37.128Z,2.57
2022-10-08T11:48:34.172Z,2.10
2022-10-08T11:51:38.755Z,2.17
2022-10-08T11:54:24.114Z,2.27
2022-10-08T11:57:13.418Z,1.50
2022-10-08T11:59:42.863Z,2.20
2022-10-08T12:02:25.062Z,1.57
2022-10-08T12:04:54.516Z,1.57
2022-10-08T12:07:28.719Z,1.77
2022-10-08T12:10:30.618Z,1.77
2022-10-08T12:13:31.284Z,2.53
2022-10-08T12:16:05.110Z,1.90
2022-10-08T12:18:44.319Z,1.90
2022-10-08T12:21:55.028Z,2.00
2022-10-08T12:24:52.799Z,1.30
2022-10-08T12:27:39.924Z,1.53
2022-10-08T12:30:11.706Z,1.60
2022-10-08T12:32:56.977Z,1.30
2022-10-08T12:35:37.947Z,1.93
2022-10-08T12:38:28.685Z,1.63
2022-10-08T12:41:10.337Z,2.17
2022-10-08T12:43:44.925Z,1.73
2022-10-08T12:46:29.845Z,1.60
2022-10-08T12:49:03.075Z,1.47
2022-10-08T12:51:41.444Z,1.50
2022-10-08T12:54:19.607Z,1.67
2022-10-08T12:56:48.174Z,1.83
2022-10-08T12:59:16.451Z,1.43
2022-10-08T13:01:47.538Z,1.30
2022-10-08T13:04:19.799Z,1.40
2022-10-08T13:06:48.848Z,1.70
2022-10-08T13:09:27.212Z,1.60
2022-10-08T13:12:00.678Z,1.73
2022-10-08T13:14:32.592Z,1.30
2022-10-08T13:17:02.596Z,1.70
2022-10-08T13:19:32.678Z,1.50
2022-10-08T13:22:02.585Z,1.77
2022-10-08T13:24:39.309Z,2.30
2022-10-08T13:27:22.061Z,1.30
2022-10-08T13:29:50.144Z,1.40
2022-10-08T13:32:23.201Z,1.83
2022-10-08T13:34:53.280Z,1.60
2022-10-08T13:37:31.218Z,1.40
2022-10-08T13:40:01.420Z,1.20
2022-10-08T13:42:32.371Z,1.30
2022-10-08T13:45:01.581Z,1.17
2022-10-08T13:47:31.066Z,1.00
2022-10-08T13:50:02.138Z,0.93
2022-10-08T13:52:33.131Z,1.37
2022-10-08T13:55:03.300Z,0.90
2022-10-08T13:57:31.377Z,1.20
2022-10-08T13:59:59.459Z,1.27
2022-10-08T14:02:27.520Z,1.20
2022-10-08T14:04:56.962Z,1.23
2022-10-08T14:07:28.271Z,1.20
2022-10-08T14:09:56.989Z,1.00
2022-10-08T14:12:27.499Z,1.27
2022-10-08T14:14:55.842Z,1.43
2022-10-08T14:17:24.232Z,1.10
2022-10-08T14:19:54.226Z,1.20
2022-10-08T14:22:23.955Z,1.77
2022-10-08T14:24:52.479Z,1.60
2022-10-08T14:27:20.552Z,1.30
2022-10-08T14:29:48.613Z,1.30
2022-10-08T14:32:20.196Z,1.20
2022-10-08T14:34:48.281Z,1.20
2022-10-08T14:37:16.963Z,1.10
2022-10-08T14:39:47.067Z,1.70
2022-10-08T14:42:15.329Z,1.30
2022-10-08T14:44:43.395Z,1.07
2022-10-08T14:47:11.415Z,1.53
2022-10-08T14:49:39.461Z,1.07
2022-10-08T14:52:07.612Z,2.23
2022-10-08T14:54:35.631Z,1.80
2022-10-08T14:57:05.263Z,1.23
2022-10-08T14:59:37.553Z,1.77
2022-10-08T15:02:08.079Z,1.20
2022-10-08T15:04:36.212Z,1.20
2022-10-08T15:07:04.650Z,1.20
2022-10-08T15:09:32.736Z,1.00
2022-10-08T15:12:00.799Z,1.00
2022-10-08T15:14:32.385Z,1.27
2022-10-08T15:17:03.741Z,1.20
2022-10-08T15:19:32.885Z,1.13
2022-10-08T15:22:00.921Z,0.90
2022-10-08T15:24:29.002Z,1.40
2022-10-08T15:26:57.054Z,1.07
2022-10-08T15:29:25.117Z,1.00
2022-10-08T15:31:54.607Z,1.30
2022-10-08T15:34:22.886Z,0.80
2022-10-08T15:36:50.942Z,1.00
2022-10-08T15:39:20.252Z,1.30
2022-10-08T15:41:50.013Z,1.53
2022-10-08T15:44:20.465Z,1.13
2022-10-08T15:46:49.411Z,1.17
2022-10-08T15:49:18.776Z,1.90
2022-10-08T15:51:46.865Z,1.13
2022-10-08T15:54:14.955Z,1.40
2022-10-08T15:56:43.016Z,1.00
2022-10-08T15:59:11.032Z,1.00
2022-10-08T16:01:39.192Z,1.03
2022-10-08T16:04:07.982Z,1.07
2022-10-08T16:06:37.383Z,0.93
2022-10-08T16:09:05.955Z,1.10
2022-10-08T16:11:35.360Z,1.10
2022-10-08T16:14:06.235Z,1.07
2022-10-08T16:16:34.559Z,1.20
2022-10-08T16:19:05.191Z,0.93
2022-10-08T16:21:35.337Z,0.93
2022-10-08T16:24:05.707Z,1.00
2022-10-08T16:26:35.659Z,1.30
2022-10-08T16:29:08.079Z,1.13
2022-10-08T16:31:38.139Z,1.53
2022-10-08T16:34:08.210Z,2.00
2022-10-08T16:36:37.768Z,1.77
2022-10-08T16:39:08.035Z,1.53
2022-10-08T16:41:37.176Z,1.77
2022-10-08T16:44:11.979Z,1.73
2022-10-08T16:46:42.604Z,2.43
2022-10-08T16:49:18.330Z,1.30
2022-10-08T16:51:49.693Z,2.07
2022-10-08T16:54:20.197Z,2.10
2022-10-08T16:56:48.415Z,1.83
2022-10-08T16:59:19.069Z,2.10
2022-10-08T17:01:49.145Z,2.03
2022-10-08T17:04:18.149Z,1.77
2022-10-08T17:06:46.410Z,1.30
2022-10-08T17:09:15.028Z,1.30
2022-10-08T17:11:44.505Z,1.20
2022-10-08T17:14:13.256Z,1.27
2022-10-08T17:16:43.218Z,1.70
2022-10-08T17:19:11.423Z,1.30
2022-10-08T17:21:39.682Z,1.50
2022-10-08T17:24:08.415Z,1.50
2022-10-08T17:26:36.674Z,4.40
2022-10-08T17:29:07.926Z,2.20
2022-10-08T17:31:36.876Z,1.87
2022-10-08T17:34:05.688Z,2.30
2022-10-08T17:36:36.102Z,4.20
2022-10-08T17:39:06.503Z,4.30
2022-10-08T17:41:36.478Z,5.07
2022-10-08T17:44:07.856Z,4.77
2022-10-08T17:46:37.961Z,3.63
2022-10-08T17:49:06.855Z,3.30
2022-10-08T17:51:35.236Z,3.80
2022-10-08T17:54:05.475Z,4.03
2022-10-08T17:56:33.875Z,3.60
2022-10-08T17:59:01.889Z,2.30
2022-10-08T18:01:32.555Z,1.80
2022-10-08T18:04:02.375Z,2.00
2022-10-08T18:06:31.110Z,1.63
2022-10-08T18:09:01.043Z,1.80
2022-10-08T18:11:30.896Z,1.50
2022-10-08T18:13:59.298Z,1.70
2022-10-08T18:16:27.571Z,1.70
2022-10-08T18:18:57.215Z,1.50
2022-10-08T18:21:25.542Z,2.50
2022-10-08T18:23:53.988Z,3.90
2022-10-08T18:26:23.994Z,3.20
2022-10-08T18:28:54.181Z,4.13
2022-10-08T18:31:24.286Z,11.23
2022-10-08T18:33:56.188Z,12.57
2022-10-08T18:36:26.987Z,12.60
2022-10-08T18:38:56.765Z,11.90
2022-10-08T18:41:27.493Z,8.97
2022-10-08T18:43:56.123Z,8.80
2022-10-08T18:46:24.852Z,8.40
2022-10-08T18:48:53.371Z,6.30
2022-10-08T18:51:24.310Z,5.43
2022-10-08T18:53:55.450Z,4.50
2022-10-08T18:56:28.748Z,4.30
2022-10-08T18:58:57.234Z,3.03
2022-10-08T19:01:28.659Z,3.27
2022-10-08T19:03:58.486Z,3.00
2022-10-08T19:06:29.589Z,3.47
2022-10-08T19:09:00.686Z,3.00
2022-10-08T19:11:33.560Z,2.43
2022-10-08T19:14:01.831Z,1.63
2022-10-08T19:16:30.406Z,1.57
2022-10-08T19:19:02.449Z,1.30
2022-10-08T19:21:31.953Z,1.43
2022-10-08T19:24:02.721Z,1.40
2022-10-08T19:26:31.534Z,1.80
2022-10-08T19:29:00.432Z,1.40
2022-10-08T19:31:30.720Z,1.77
2022-10-08T19:34:00.918Z,1.50
2022-10-08T19:36:30.646Z,1.70
2022-10-08T19:39:03.334Z,1.60
2022-10-08T19:41:32.357Z,1.87
2022-10-08T19:44:01.031Z,1.60
2022-10-08T19:46:29.862Z,1.30
2022-10-08T19:48:59.780Z,1.40
2022-10-08T19:51:29.376Z,2.53
2022-10-08T19:53:58.563Z,1.57
2022-10-08T19:56:29.487Z,2.40
2022-10-08T19:58:57.757Z,1.50
2022-10-08T20:01:27.623Z,2.50
2022-10-08T20:03:57.039Z,3.33
2022-10-08T20:06:27.533Z,3.83
2022-10-08T20:08:56.762Z,4.60
2022-10-08T20:11:25.679Z,4.90
2022-10-08T20:13:55.757Z,4.17
2022-10-08T20:16:26.242Z,4.20
2022-10-08T20:18:56.303Z,5.43
2022-10-08T20:21:24.461Z,6.10
2022-10-08T20:23:52.812Z,7.50
2022-10-08T20:26:22.780Z,5.97
2022-10-08T20:28:52.855Z,5.90
2022-10-08T20:31:24.319Z,7.00
2022-10-08T20:33:57.529Z,7.53
2022-10-08T20:36:26.847Z,6.30
2022-10-08T20:38:54.941Z,7.00
2022-10-08T20:41:30.251Z,6.17
2022-10-08T20:44:02.415Z,7.10
2022-10-08T20:46:32.894Z,6.43
2022-10-08T20:49:01.316Z,6.60
2022-10-08T20:51:30.378Z,5.87
2022-10-08T20:54:00.827Z,5.70
2022-10-08T20:56:30.458Z,5.93
2022-10-08T20:58:59.109Z,6.27
2022-10-08T21:01:29.084Z,6.63
2022-10-08T21:04:00.580Z,6.53
2022-10-08T21:06:30.842Z,6.53
2022-10-08T21:09:00.433Z,7.27
2022-10-08T21:11:31.106Z,6.90
2022-10-08T21:14:01.608Z,7.00
2022-10-08T21:16:32.033Z,6.97
2022-10-08T21:19:02.901Z,6.00
2022-10-08T21:21:33.041Z,6.93
2022-10-08T21:24:01.703Z,4.43
2022-10-08T21:26:31.101Z,4.20
2022-10-08T21:29:00.904Z,4.53
2022-10-08T21:31:31.295Z,3.87
2022-10-08T21:34:01.475Z,4.17
2022-10-08T21:36:31.626Z,4.00
2022-10-08T21:39:00.387Z,5.20
2022-10-08T21:41:30.810Z,4.33
2022-10-08T21:44:01.451Z,4.00
2022-10-08T21:46:31.600Z,5.03
2022-10-08T21:49:03.048Z,4.47
2022-10-08T21:51:32.770Z,4.63
2022-10-08T21:54:02.773Z,4.03
2022-10-08T21:56:33.166Z,4.23
2022-10-08T21:59:03.877Z,5.27
2022-10-08T22:01:35.241Z,5.53
2022-10-08T22:04:07.564Z,5.10
2022-10-08T22:06:38.300Z,4.53
2022-10-08T22:09:07.441Z,5.20
2022-10-08T22:11:35.673Z,5.17
2022-10-08T22:14:04.219Z,3.77
2022-10-08T22:16:32.486Z,4.20
2022-10-08T22:19:01.160Z,3.27
2022-10-08T22:21:31.026Z,3.00
2022-10-08T22:23:59.456Z,2.53
2022-10-08T22:26:29.439Z,2.70
2022-10-08T22:28:58.372Z,2.20
2022-10-08T22:31:27.449Z,2.40
2022-10-08T22:33:56.097Z,3.07
2022-10-08T22:36:26.434Z,2.73
2022-10-08T22:38:56.521Z,2.60
2022-10-08T22:41:28.056Z,3.03
2022-10-08T22:43:57.060Z,3.03
2022-10-08T22:46:26.749Z,3.20
2022-10-08T22:48:59.225Z,3.20
2022-10-08T22:51:27.380Z,2.70
2022-10-08T22:53:57.396Z,2.83
2022-10-08T22:56:29.558Z,3.10
2022-10-08T22:58:58.765Z,3.70
2022-10-08T23:01:28.070Z,3.30
2022-10-08T23:03:56.367Z,3.37
2022-10-08T23:06:25.682Z,3.47
2022-10-08T23:08:57.196Z,3.07
2022-10-08T23:11:25.883Z,3.33
2022-10-08T23:13:55.781Z,4.13
2022-10-08T23:16:25.681Z,3.77
2022-10-08T23:18:55.866Z,3.50
2022-10-08T23:21:24.403Z,3.80
2022-10-08T23:23:53.782Z,3.70
2022-10-08T23:26:24.558Z,3.57
2022-10-08T23:28:54.079Z,3.47
2022-10-08T23:31:24.567Z,3.23
2022-10-08T23:33:54.133Z,3.60
2022-10-08T23:36:23.699Z,3.00
2022-10-08T23:38:52.298Z,2.90
2022-10-08T23:41:20.918Z,2.90
2022-10-08T23:43:52.133Z,3.57
2022-10-08T23:46:22.256Z,3.30
2022-10-08T23:48:51.039Z,2.80
2022-10-08T23:51:20.137Z,2.70
2022-10-08T23:53:48.861Z,3.30
2022-10-08T23:56:17.557Z,2.83
2022-10-08T23:58:45.873Z,2.60
